createdAt,value
2022-08-14T00:01:10.416Z,6.30
2022-08-14T00:03:40.635Z,6.38
2022-08-14T00:06:25.701Z,6.50
2022-08-14T00:08:59.289Z,6.20
2022-08-14T00:11:28.788Z,6.15
2022-08-14T00:13:59.295Z,6.18
2022-08-14T00:16:41.499Z,6.18
2022-08-14T00:19:19.474Z,6.28
2022-08-14T00:21:52.266Z,6.30
2022-08-14T00:24:28.268Z,6.22
2022-08-14T00:27:02.124Z,6.25
2022-08-14T00:29:39.951Z,6.53
2022-08-14T00:32:51.978Z,6.40
2022-08-14T00:34:56.406Z,6.07
2022-08-14T00:37:23.271Z,6.32
2022-08-14T00:39:51.141Z,6.93
2022-08-14T00:42:52.836Z,6.65
2022-08-14T00:45:11.373Z,6.78
2022-08-14T00:47:43.196Z,6.68
2022-08-14T00:50:17.649Z,6.10
2022-08-14T00:52:51.215Z,5.93
2022-08-14T00:55:19.926Z,7.00
2022-08-14T00:58:07.949Z,7.20
2022-08-14T01:00:37.266Z,7.00
2022-08-14T01:03:17.448Z,7.60
2022-08-14T01:05:51.692Z,7.32
2022-08-14T01:08:51.114Z,7.32
2022-08-14T01:11:08.132Z,7.55
2022-08-14T01:13:42.526Z,7.82
2022-08-14T01:16:14.926Z,8.23
2022-08-14T01:19:02.324Z,8.02
2022-08-14T01:21:47.110Z,8.38
2022-08-14T01:24:22.995Z,7.72
2022-08-14T01:27:00.176Z,7.70
2022-08-14T01:29:58.201Z,7.57
2022-08-14T01:32:23.325Z,7.07
2022-08-14T01:35:18.128Z,7.28
2022-08-14T01:37:56.531Z,7.22
2022-08-14T01:40:36.672Z,7.72
2022-08-14T01:43:14.693Z,7.13
2022-08-14T01:45:42.328Z,7.05
2022-08-14T01:48:13.756Z,6.35
2022-08-14T01:50:41.828Z,7.13
2022-08-14T01:53:09.521Z,6.70
2022-08-14T01:55:38.820Z,7.10
2022-08-14T01:58:19.870Z,7.25
2022-08-14T02:00:55.156Z,6.95
2022-08-14T02:03:30.812Z,8.55
2022-08-14T02:05:59.547Z,9.02
2022-08-14T02:08:34.784Z,9.90
2022-08-14T02:11:22.283Z,11.10
2022-08-14T02:14:10.085Z,9.85
2022-08-14T02:16:43.872Z,9.57
2022-08-14T02:19:15.709Z,9.57
2022-08-14T02:21:48.981Z,8.27
2022-08-14T02:24:39.466Z,7.75
2022-08-14T02:28:22.183Z,7.32
2022-08-14T02:29:59.190Z,7.20
2022-08-14T02:32:30.675Z,7.45
2022-08-14T02:35:10.155Z,9.02
2022-08-14T02:37:47.239Z,9.82
2022-08-14T02:40:15.605Z,9.00
2022-08-14T02:42:54.779Z,8.80
2022-08-14T02:45:32.934Z,8.15
2022-08-14T02:48:03.144Z,6.75
2022-08-14T02:50:29.735Z,7.25
2022-08-14T02:53:02.993Z,7.43
2022-08-14T02:55:30.986Z,6.57
2022-08-14T02:58:03.290Z,7.50
2022-08-14T03:00:33.000Z,6.53
2022-08-14T03:03:01.054Z,6.20
2022-08-14T03:05:33.135Z,6.78
2022-08-14T03:08:08.124Z,6.15
2022-08-14T03:10:34.767Z,7.00
2022-08-14T03:13:04.378Z,7.22
2022-08-14T03:15:33.148Z,6.55
2022-08-14T03:18:00.953Z,7.18
2022-08-14T03:20:29.257Z,6.72
2022-08-14T03:22:59.325Z,7.13
2022-08-14T03:25:26.959Z,7.25
2022-08-14T03:27:58.704Z,6.90
2022-08-14T03:30:39.014Z,6.80
2022-08-14T03:33:10.657Z,6.97
2022-08-14T03:35:40.339Z,6.68
2022-08-14T03:39:13.230Z,7.22
2022-08-14T03:41:17.156Z,7.68
2022-08-14T03:43:44.702Z,7.53
2022-08-14T03:46:52.139Z,7.40
2022-08-14T03:49:01.328Z,6.77
2022-08-14T03:51:29.894Z,7.85
2022-08-14T03:53:57.885Z,6.95
2022-08-14T03:56:26.606Z,7.00
2022-08-14T03:58:57.488Z,6.82
2022-08-14T04:01:29.314Z,7.10
2022-08-14T04:04:07.808Z,8.02
2022-08-14T04:06:45.232Z,8.40
2022-08-14T04:09:14.575Z,8.18
2022-08-14T04:11:43.874Z,8.13
2022-08-14T04:14:10.395Z,7.55
2022-08-14T04:16:48.066Z,8.65
2022-08-14T04:19:23.804Z,9.13
2022-08-14T04:22:03.266Z,9.13
2022-08-14T04:24:37.804Z,9.00
2022-08-14T04:27:10.377Z,9.63
2022-08-14T04:29:42.609Z,9.23
2022-08-14T04:33:10.254Z,8.57
2022-08-14T04:34:58.873Z,8.55
2022-08-14T04:37:45.480Z,9.35
2022-08-14T04:40:32.245Z,8.32
2022-08-14T04:43:18.104Z,7.35
2022-08-14T04:45:45.402Z,7.65
2022-08-14T04:48:39.460Z,7.90
2022-08-14T04:51:07.587Z,7.93
2022-08-14T04:53:43.258Z,8.53
2022-08-14T04:56:31.457Z,9.75
2022-08-14T04:59:10.679Z,9.25
2022-08-14T05:01:47.651Z,9.20
2022-08-14T05:04:20.173Z,8.68
2022-08-14T05:06:49.059Z,8.20
2022-08-14T05:09:16.231Z,8.00
2022-08-14T05:11:44.616Z,7.53
2022-08-14T05:14:17.326Z,7.32
2022-08-14T05:17:01.792Z,7.28
2022-08-14T05:19:29.549Z,7.40
2022-08-14T05:22:16.720Z,7.05
2022-08-14T05:24:48.771Z,7.05
2022-08-14T05:27:19.843Z,7.55
2022-08-14T05:29:49.054Z,7.18
2022-08-14T05:32:16.353Z,6.93
2022-08-14T05:34:45.786Z,8.95
2022-08-14T05:37:15.408Z,8.18
2022-08-14T05:39:43.008Z,8.85
2022-08-14T05:42:09.976Z,8.50
2022-08-14T05:44:48.129Z,7.28
2022-08-14T05:47:16.034Z,6.93
2022-08-14T05:49:43.701Z,7.45
2022-08-14T05:52:10.709Z,7.20
2022-08-14T05:54:44.514Z,6.93
2022-08-14T05:57:11.014Z,7.20
2022-08-14T05:59:39.892Z,7.55
2022-08-14T06:02:10.995Z,7.90
2022-08-14T06:04:39.378Z,7.40
2022-08-14T06:07:06.874Z,7.60
2022-08-14T06:09:36.025Z,7.88
2022-08-14T06:12:10.667Z,7.47
2022-08-14T06:14:39.303Z,8.00
2022-08-14T06:17:07.192Z,7.93
2022-08-14T06:19:33.743Z,7.88
2022-08-14T06:22:00.267Z,7.13
2022-08-14T06:24:30.457Z,7.50
2022-08-14T06:27:04.267Z,7.68
2022-08-14T06:29:34.695Z,8.10
2022-08-14T06:32:37.528Z,8.13
2022-08-14T06:35:03.291Z,7.47
2022-08-14T06:37:52.284Z,7.82
2022-08-14T06:40:28.421Z,8.18
2022-08-14T06:43:03.733Z,7.90
2022-08-14T06:45:35.148Z,7.28
2022-08-14T06:48:06.212Z,8.15
2022-08-14T06:50:39.685Z,7.00
2022-08-14T06:53:07.287Z,7.45
2022-08-14T06:55:34.419Z,7.45
2022-08-14T06:58:04.277Z,6.97
2022-08-14T07:00:32.637Z,6.97
2022-08-14T07:03:19.424Z,7.13
2022-08-14T07:05:55.402Z,6.25
2022-08-14T07:08:31.601Z,6.38
2022-08-14T07:11:03.909Z,6.50
2022-08-14T07:13:31.029Z,6.55
2022-08-14T07:15:59.198Z,7.13
2022-08-14T07:18:33.243Z,6.90
2022-08-14T07:21:01.478Z,7.05
2022-08-14T07:23:28.213Z,7.45
2022-08-14T07:26:00.151Z,6.20
2022-08-14T07:28:29.886Z,6.57
2022-08-14T07:31:04.835Z,6.15
2022-08-14T07:33:41.937Z,6.65
2022-08-14T07:36:27.204Z,6.60
2022-08-14T07:39:00.588Z,6.32
2022-08-14T07:41:33.671Z,6.78
2022-08-14T07:44:29.243Z,6.78
2022-08-14T07:46:50.212Z,6.40
2022-08-14T07:49:17.777Z,6.95
2022-08-14T07:51:45.306Z,6.55
2022-08-14T07:54:12.251Z,6.65
2022-08-14T07:56:44.482Z,6.47
2022-08-14T07:59:18.013Z,6.32
2022-08-14T08:01:51.338Z,6.78
2022-08-14T08:04:24.088Z,6.50
2022-08-14T08:06:52.385Z,5.50
2022-08-14T08:09:23.817Z,5.88
2022-08-14T08:11:54.587Z,6.40
2022-08-14T08:14:25.265Z,6.57
2022-08-14T08:16:53.958Z,6.30
2022-08-14T08:19:20.531Z,6.25
2022-08-14T08:21:48.014Z,6.50
2022-08-14T08:24:19.721Z,5.78
2022-08-14T08:26:50.380Z,6.65
2022-08-14T08:29:22.471Z,6.22
2022-08-14T08:31:55.452Z,6.38
2022-08-14T08:34:23.713Z,6.85
2022-08-14T08:36:51.540Z,6.55
2022-08-14T08:39:22.002Z,6.17
2022-08-14T08:41:53.374Z,6.53
2022-08-14T08:44:32.570Z,6.30
2022-08-14T08:47:05.426Z,6.63
2022-08-14T08:49:41.994Z,6.40
2022-08-14T08:52:15.199Z,5.72
2022-08-14T08:54:55.789Z,5.97
2022-08-14T08:57:22.369Z,6.00
2022-08-14T08:59:54.848Z,6.15
2022-08-14T09:02:22.684Z,6.90
2022-08-14T09:05:02.257Z,6.10
2022-08-14T09:07:28.943Z,6.13
2022-08-14T09:10:00.073Z,6.47
2022-08-14T09:12:33.459Z,6.18
2022-08-14T09:15:12.204Z,5.70
2022-08-14T09:20:11.596Z,6.43
2022-08-14T09:22:42.392Z,6.15
2022-08-14T09:25:15.362Z,6.35
2022-08-14T09:27:42.317Z,6.10
2022-08-14T09:30:30.661Z,6.25
2022-08-14T09:35:39.200Z,5.85
2022-08-14T09:38:25.819Z,6.75
2022-08-14T09:42:21.075Z,6.53
2022-08-14T09:44:27.546Z,6.53
2022-08-14T09:46:57.943Z,6.53
2022-08-14T09:49:39.969Z,6.72
2022-08-14T09:52:32.953Z,6.85
2022-08-14T09:54:59.376Z,6.32
2022-08-14T09:57:28.957Z,6.03
2022-08-14T09:59:55.890Z,6.47
2022-08-14T10:02:27.990Z,6.40
2022-08-14T10:05:10.030Z,7.10
2022-08-14T10:07:53.863Z,7.30
2022-08-14T10:10:39.497Z,7.43
2022-08-14T10:13:21.595Z,6.88
2022-08-14T10:15:51.343Z,6.85
2022-08-14T10:18:20.223Z,6.28
2022-08-14T10:20:58.269Z,6.45
2022-08-14T10:23:27.877Z,6.63
2022-08-14T10:26:06.588Z,6.68
2022-08-14T10:29:18.183Z,6.50
2022-08-14T10:31:44.519Z,6.88
2022-08-14T10:34:14.184Z,6.45
2022-08-14T10:36:47.510Z,6.78
2022-08-14T10:39:27.693Z,6.18
2022-08-14T10:42:18.336Z,6.97
2022-08-14T10:44:52.347Z,6.55
2022-08-14T10:47:41.287Z,6.63
2022-08-14T10:50:07.803Z,6.38
2022-08-14T10:52:42.407Z,6.25
2022-08-14T10:55:16.045Z,5.85
2022-08-14T10:57:53.670Z,6.03
2022-08-14T11:00:30.268Z,5.47
2022-08-14T11:03:02.872Z,6.45
2022-08-14T11:05:43.794Z,6.45
2022-08-14T11:08:12.928Z,6.40
2022-08-14T11:10:43.932Z,6.03
2022-08-14T11:13:16.391Z,6.13
2022-08-14T11:15:45.134Z,6.05
2022-08-14T11:18:20.467Z,6.45
2022-08-14T11:20:59.741Z,6.40
2022-08-14T11:23:38.479Z,6.20
2022-08-14T11:26:08.696Z,6.13
2022-08-14T11:28:48.144Z,6.35
2022-08-14T11:31:19.739Z,6.47
2022-08-14T11:33:58.254Z,5.63
2022-08-14T11:39:23.153Z,5.68
2022-08-14T11:42:55.541Z,5.25
2022-08-14T11:44:53.892Z,5.55
2022-08-14T11:47:26.902Z,6.30
2022-08-14T11:50:13.276Z,5.63
2022-08-14T11:52:40.571Z,6.03
2022-08-14T11:55:13.524Z,5.40
2022-08-14T11:57:41.850Z,5.82
2022-08-14T12:00:19.501Z,5.03
2022-08-14T12:03:03.331Z,5.67
2022-08-14T12:05:33.728Z,5.10
2022-08-14T12:08:11.899Z,4.80
2022-08-14T12:10:43.510Z,5.07
2022-08-14T12:13:19.110Z,4.57
2022-08-14T12:15:58.687Z,4.70
2022-08-14T12:18:33.003Z,4.68
2022-08-14T12:21:21.214Z,4.60
2022-08-14T12:24:08.412Z,4.88
2022-08-14T12:26:40.520Z,4.55
2022-08-14T12:29:16.222Z,4.18
2022-08-14T12:31:46.805Z,4.82
2022-08-14T12:34:20.028Z,4.38
2022-08-14T12:36:47.539Z,4.30
2022-08-14T12:39:23.757Z,5.20
2022-08-14T12:41:56.919Z,4.72
2022-08-14T12:44:38.452Z,4.63
2022-08-14T12:47:29.499Z,4.95
2022-08-14T12:49:57.490Z,5.00
2022-08-14T12:52:56.052Z,5.20
2022-08-14T12:56:18.825Z,4.63
2022-08-14T12:58:35.254Z,4.68
2022-08-14T13:01:23.097Z,6.20
2022-08-14T13:03:51.831Z,5.40
2022-08-14T13:06:20.353Z,4.63
2022-08-14T13:08:53.232Z,5.05
2022-08-14T13:11:23.739Z,4.68
2022-08-14T13:13:57.889Z,5.10
2022-08-14T13:16:37.977Z,5.00
2022-08-14T13:19:11.698Z,5.90
2022-08-14T13:22:05.105Z,4.80
2022-08-14T13:24:27.907Z,5.55
2022-08-14T13:26:58.256Z,4.80
2022-08-14T13:29:31.404Z,4.63
2022-08-14T13:31:58.486Z,4.72
2022-08-14T13:34:28.024Z,5.13
2022-08-14T13:36:59.264Z,4.53
2022-08-14T13:39:31.432Z,4.45
2022-08-14T13:42:13.389Z,5.00
2022-08-14T13:44:42.951Z,4.27
2022-08-14T13:47:10.923Z,4.90
2022-08-14T13:49:40.423Z,5.30
2022-08-14T13:52:51.338Z,4.60
2022-08-14T13:55:15.548Z,4.43
2022-08-14T13:57:49.418Z,4.43
2022-08-14T14:00:32.536Z,4.55
2022-08-14T14:03:00.082Z,4.35
2022-08-14T14:05:52.184Z,4.25
2022-08-14T14:11:02.353Z,4.95
2022-08-14T14:13:31.052Z,4.95
2022-08-14T14:16:02.760Z,5.10
2022-08-14T14:18:34.701Z,4.80
2022-08-14T14:21:02.704Z,4.30
2022-08-14T14:23:30.052Z,4.30
2022-08-14T14:25:57.684Z,5.07
2022-08-14T14:28:31.282Z,4.75
2022-08-14T14:31:01.325Z,4.63
2022-08-14T14:33:47.353Z,5.15
2022-08-14T14:36:21.429Z,4.95
2022-08-14T14:38:57.970Z,4.75
2022-08-14T14:41:38.487Z,4.53
2022-08-14T14:44:13.638Z,4.80
2022-08-14T14:46:49.452Z,4.45
2022-08-14T14:49:21.753Z,4.43
2022-08-14T14:51:51.543Z,5.70
2022-08-14T14:54:31.183Z,5.05
2022-08-14T14:57:00.156Z,5.00
2022-08-14T14:59:29.652Z,4.65
2022-08-14T15:02:08.210Z,4.70
2022-08-14T15:04:38.317Z,4.70
2022-08-14T15:07:06.527Z,4.90
2022-08-14T15:09:36.152Z,4.47
2022-08-14T15:12:16.149Z,3.85
2022-08-14T15:14:55.460Z,4.55
2022-08-14T15:17:24.933Z,4.10
2022-08-14T15:19:56.708Z,4.32
2022-08-14T15:24:52.003Z,4.30
2022-08-14T15:27:26.385Z,4.22
2022-08-14T15:29:53.538Z,4.22
2022-08-14T15:32:23.261Z,4.10
2022-08-14T15:34:51.894Z,4.63
2022-08-14T15:37:22.909Z,4.70
2022-08-14T15:39:50.653Z,4.30
2022-08-14T15:42:22.977Z,4.13
2022-08-14T15:44:57.831Z,4.30
2022-08-14T15:47:31.708Z,4.55
2022-08-14T15:50:01.570Z,4.90
2022-08-14T15:52:32.851Z,4.97
2022-08-14T15:55:15.305Z,5.03
2022-08-14T15:58:01.529Z,5.32
2022-08-14T16:00:51.948Z,5.00
2022-08-14T16:03:27.813Z,4.55
2022-08-14T16:06:19.789Z,4.50
2022-08-14T16:08:50.310Z,4.70
2022-08-14T16:11:25.769Z,4.22
2022-08-14T16:13:57.719Z,4.65
2022-08-14T16:16:48.089Z,4.22
2022-08-14T16:19:18.863Z,4.22
2022-08-14T16:24:35.794Z,4.20
2022-08-14T16:27:07.522Z,4.65
2022-08-14T16:29:37.977Z,4.50
2022-08-14T16:32:32.108Z,4.80
2022-08-14T16:34:55.743Z,4.50
2022-08-14T16:37:23.480Z,4.47
2022-08-14T16:39:59.396Z,4.53
2022-08-14T16:40:24.105Z,4.82
2022-08-14T16:42:38.864Z,4.38
2022-08-14T16:45:17.804Z,4.20
2022-08-14T16:47:44.651Z,4.38
2022-08-14T16:50:15.225Z,4.60
2022-08-14T16:53:01.956Z,4.72
2022-08-14T16:55:33.986Z,4.22
2022-08-14T16:58:21.169Z,4.70
2022-08-14T17:00:53.824Z,4.70
2022-08-14T17:03:20.554Z,4.57
2022-08-14T17:05:48.191Z,4.53
2022-08-14T17:08:32.888Z,4.65
2022-08-14T17:11:10.807Z,4.65
2022-08-14T17:13:59.169Z,4.80
2022-08-14T17:16:38.929Z,4.70
2022-08-14T17:19:09.692Z,4.43
2022-08-14T17:21:41.069Z,4.40
2022-08-14T17:24:57.289Z,5.33
2022-08-14T17:27:03.927Z,5.35
2022-08-14T17:29:54.554Z,5.82
2022-08-14T17:35:16.563Z,6.07
2022-08-14T17:37:46.139Z,5.72
2022-08-14T17:40:16.586Z,6.60
2022-08-14T17:42:53.435Z,5.60
2022-08-14T17:45:43.190Z,6.68
2022-08-14T17:49:14.373Z,5.93
2022-08-14T17:51:17.021Z,5.72
2022-08-14T17:54:01.262Z,5.80
2022-08-14T17:56:31.008Z,5.32
2022-08-14T17:59:06.890Z,5.90
2022-08-14T18:01:45.608Z,5.78
2022-08-14T18:04:24.901Z,5.35
2022-08-14T18:07:50.524Z,5.68
2022-08-14T18:09:59.087Z,5.60
2022-08-14T18:12:37.194Z,6.15
2022-08-14T18:15:14.746Z,5.55
2022-08-14T18:17:52.521Z,6.25
2022-08-14T18:21:25.504Z,5.72
2022-08-14T18:23:13.700Z,5.95
2022-08-14T18:25:54.501Z,5.63
2022-08-14T18:28:48.401Z,6.07
2022-08-14T18:31:21.031Z,6.05
2022-08-14T18:33:55.204Z,6.20
2022-08-14T18:36:48.475Z,5.85
2022-08-14T18:40:01.267Z,5.88
2022-08-14T18:42:32.964Z,6.20
2022-08-14T18:45:01.620Z,5.80
2022-08-14T18:48:03.386Z,6.20
2022-08-14T18:50:27.495Z,6.38
2022-08-14T18:53:09.002Z,6.05
2022-08-14T18:55:37.172Z,5.95
2022-08-14T18:58:27.892Z,6.10
2022-08-14T19:01:02.123Z,6.20
2022-08-14T19:03:34.283Z,7.03
2022-08-14T19:06:08.992Z,6.93
2022-08-14T19:08:45.420Z,6.88
2022-08-14T19:11:34.285Z,6.75
2022-08-14T19:16:36.776Z,6.43
2022-08-14T19:19:08.666Z,6.97
2022-08-14T19:21:55.105Z,6.95
2022-08-14T19:24:34.090Z,7.22
2022-08-14T19:27:23.733Z,6.72
2022-08-14T19:30:20.146Z,6.43
2022-08-14T19:32:50.769Z,6.40
2022-08-14T19:35:22.768Z,6.35
2022-08-14T19:37:56.193Z,6.82
2022-08-14T19:40:39.936Z,6.32
2022-08-14T19:43:09.281Z,6.47
2022-08-14T19:45:37.828Z,6.15
2022-08-14T19:48:12.435Z,6.20
2022-08-14T19:50:41.287Z,6.18
2022-08-14T19:53:17.393Z,5.93
2022-08-14T19:55:58.782Z,6.53
2022-08-14T19:58:55.071Z,6.55
2022-08-14T20:01:37.004Z,6.18
2022-08-14T20:04:46.327Z,6.22
2022-08-14T20:06:57.506Z,6.55
2022-08-14T20:11:07.733Z,6.50
2022-08-14T20:12:29.251Z,6.72
2022-08-14T20:15:08.800Z,6.57
2022-08-14T20:17:44.443Z,6.72
2022-08-14T20:20:30.698Z,6.47
2022-08-14T20:23:02.122Z,6.38
2022-08-14T20:25:56.677Z,6.95
2022-08-14T20:28:31.729Z,6.97
2022-08-14T20:31:17.785Z,7.28
2022-08-14T20:34:07.948Z,7.45
2022-08-14T20:36:46.032Z,7.75
2022-08-14T20:39:15.390Z,6.88
2022-08-14T20:41:51.033Z,6.90
2022-08-14T20:44:41.201Z,7.28
2022-08-14T20:47:15.043Z,7.03
2022-08-14T20:49:41.625Z,7.20
2022-08-14T20:52:18.908Z,6.90
2022-08-14T20:54:50.702Z,7.40
2022-08-14T20:57:18.845Z,7.55
2022-08-14T20:59:50.121Z,8.13
2022-08-14T21:02:34.476Z,7.68
2022-08-14T21:05:17.372Z,7.50
2022-08-14T21:07:50.953Z,7.55
2022-08-14T21:10:33.836Z,7.55
2022-08-14T21:14:08.889Z,8.35
2022-08-14T21:15:56.626Z,7.45
2022-08-14T21:18:25.055Z,7.75
2022-08-14T21:20:56.761Z,7.57
2022-08-14T21:23:23.346Z,7.47
2022-08-14T21:25:50.421Z,7.28
2022-08-14T21:28:30.142Z,7.63
2022-08-14T21:30:57.843Z,7.57
2022-08-14T21:33:25.031Z,7.40
2022-08-14T21:35:54.862Z,7.40
2022-08-14T21:38:33.490Z,7.28
2022-08-14T21:41:43.434Z,7.97
2022-08-14T21:44:18.346Z,7.68
2022-08-14T21:46:53.983Z,7.40
2022-08-14T21:49:34.138Z,7.75
2022-08-14T21:52:50.894Z,7.53
2022-08-14T21:55:08.714Z,7.05
2022-08-14T21:58:46.390Z,7.63
2022-08-14T22:00:36.562Z,7.55
2022-08-14T22:03:10.681Z,7.30
2022-08-14T22:05:41.797Z,7.43
2022-08-14T22:08:12.449Z,7.07
2022-08-14T22:10:42.486Z,7.70
2022-08-14T22:13:12.069Z,7.05
2022-08-14T22:15:43.915Z,7.60
2022-08-14T22:18:20.631Z,7.97
2022-08-14T22:20:53.743Z,7.13
2022-08-14T22:23:21.641Z,8.00
2022-08-14T22:25:51.078Z,7.65
2022-08-14T22:28:25.324Z,7.88
2022-08-14T22:30:55.032Z,8.27
2022-08-14T22:33:30.977Z,8.48
2022-08-14T22:35:59.319Z,8.30
2022-08-14T22:38:37.669Z,8.50
2022-08-14T22:41:28.037Z,8.25
2022-08-14T22:43:54.720Z,7.50
2022-08-14T22:46:21.738Z,7.88
2022-08-14T22:48:49.354Z,7.97
2022-08-14T22:51:18.888Z,7.38
2022-08-14T22:53:48.677Z,8.15
2022-08-14T22:56:21.150Z,7.90
2022-08-14T22:58:53.509Z,7.97
2022-08-14T23:01:56.920Z,7.63
2022-08-14T23:04:35.608Z,7.80
2022-08-14T23:07:22.085Z,7.43
2022-08-14T23:09:56.251Z,8.02
2022-08-14T23:12:28.396Z,8.43
2022-08-14T23:14:56.199Z,7.35
2022-08-14T23:17:22.762Z,8.27
2022-08-14T23:19:49.309Z,7.90
2022-08-14T23:22:24.272Z,7.65
2022-08-14T23:24:53.085Z,8.35
2022-08-14T23:27:32.055Z,8.02
2022-08-14T23:30:33.957Z,7.82
2022-08-14T23:33:03.084Z,8.13
2022-08-14T23:35:32.996Z,7.57
2022-08-14T23:38:05.478Z,8.43
2022-08-14T23:40:34.476Z,7.90
2022-08-14T23:43:09.572Z,7.60
2022-08-14T23:45:40.821Z,7.50
2022-08-14T23:48:12.407Z,8.25
2022-08-14T23:50:41.789Z,7.93
2022-08-14T23:53:47.299Z,7.88
2022-08-14T23:56:18.431Z,7.38
2022-08-14T23:58:49.285Z,7.55
